Terminal Aerodrome Forecast
Issued by NWS Detroit/Pontiac, MI

Home | Current Version | Previous Version | Text Only | Print | Product List | Glossary On
Versions: 1 2 3 4 5 6 7 8 9 10 11 12 13 14 15 16 17 18 19 20 21 22 23 24 25 26 27 28 29 30 31 32 33 34 35
735
FTUS43 KDTX 211722
TAFDTW
TAF
KDTW 211722Z 2118/2224 17006KT 6SM HZ SCT060
     FM220000 15005KT 3SM BR SCT050
     FM220200 VRB03KT 1/2SM FG OVC003
     FM221600 07005KT 1SM BR OVC003
     FM221800 07005KT P6SM SCT010 BKN100
     FM222000 07005KT P6SM BKN100=

USA.gov is the U.S. government's official web portal to all federal, state and local government web resources and services.